Time,TemperatureF,DewpointF,PressureIn,WindDirection,WindDirectionDegrees,WindSpeedMPH,WindSpeedGustMPH,Humidity,HourlyPrecipIn,Conditions,Clouds,dailyrainin,SoftwareType,DateUTC
2013-01-21 00:00:00,16.7,9.9,30.19,West,260,0.0,3.0,74,0.00,,---,0.00,VWS V14.01,2013-01-21 05:00:00,
2013-01-21 00:01:00,16.7,9.9,30.19,WSW,249,0.0,3.0,74,0.00,,---,0.00,VWS V14.01,2013-01-21 05:01:00,
2013-01-21 00:03:00,16.7,9.9,30.19,SW,231,1.0,1.0,74,0.00,,---,0.00,VWS V14.01,2013-01-21 05:03:00,
2013-01-21 00:08:00,16.7,9.9,30.19,SW,231,0.0,1.0,74,0.00,,---,0.00,VWS V14.01,2013-01-21 05:08:00,
2013-01-21 00:13:00,16.7,9.9,30.19,West,271,1.0,2.0,74,0.00,,---,0.00,VWS V14.01,2013-01-21 05:13:00,
2013-01-21 00:18:00,16.7,10.2,30.19,West,266,1.0,2.0,75,0.00,,---,0.00,VWS V14.01,2013-01-21 05:18:00,
2013-01-21 00:23:00,16.8,10.3,30.18,SW,229,0.0,2.0,75,0.00,,---,0.00,VWS V14.01,2013-01-21 05:23:00,
2013-01-21 00:28:00,16.8,10.3,30.18,SW,229,0.0,2.0,75,0.00,,---,0.00,VWS V14.01,2013-01-21 05:28:00,
2013-01-21 00:30:00,17.4,10.6,30.16,WSW,238,1.0,7.0,74,0.00,,---,0.00,VWS V14.01,2013-01-21 05:30:00,
2013-01-21 00:33:00,16.8,10.3,30.18,SSW,194,0.0,1.0,75,0.00,,---,0.00,VWS V14.01,2013-01-21 05:33:00,
2013-01-21 00:38:00,17.0,10.8,30.17,SW,235,1.0,2.0,76,0.00,,---,0.00,VWS V14.01,2013-01-21 05:38:00,
2013-01-21 00:43:00,17.0,10.8,30.17,SSW,210,0.0,2.0,76,0.00,,---,0.00,VWS V14.01,2013-01-21 05:43:00,
2013-01-21 00:48:00,17.0,10.8,30.17,SW,224,0.0,3.0,76,0.00,,---,0.00,VWS V14.01,2013-01-21 05:48:00,
2013-01-21 00:53:00,17.0,10.8,30.16,SSW,211,2.0,3.0,76,0.00,,---,0.00,VWS V14.01,2013-01-21 05:53:00,
2013-01-21 00:58:00,17.1,10.9,30.16,SW,233,1.0,3.0,76,0.00,,---,0.00,VWS V14.01,2013-01-21 05:58:00,
2013-01-21 01:00:00,17.7,10.2,30.16,WSW,250,4.0,8.0,72,0.00,,---,0.00,VWS V14.01,2013-01-21 06:00:00,
2013-01-21 01:03:00,17.1,10.9,30.17,SW,214,1.0,3.0,76,0.00,,---,0.00,VWS V14.01,2013-01-21 06:03:00,
2013-01-21 01:08:00,17.2,10.9,30.16,SSW,208,0.0,3.0,76,0.00,,---,0.00,VWS V14.01,2013-01-21 06:08:00,
2013-01-21 01:13:00,17.2,10.6,30.16,SSW,201,0.0,5.0,75,0.00,,---,0.00,VWS V14.01,2013-01-21 06:13:00,
2013-01-21 01:18:00,17.2,10.6,30.16,WSW,252,0.0,5.0,75,0.00,,---,0.00,VWS V14.01,2013-01-21 06:18:00,
2013-01-21 01:23:00,17.3,10.8,30.16,WSW,248,1.0,5.0,75,0.00,,---,0.00,VWS V14.01,2013-01-21 06:23:00,
2013-01-21 01:28:00,17.3,10.4,30.16,SSW,201,3.0,7.0,74,0.00,,---,0.00,VWS V14.01,2013-01-21 06:28:00,
2013-01-21 01:30:00,17.8,9.7,30.16,SW,222,1.0,10.0,70,0.00,,---,0.00,VWS V14.01,2013-01-21 06:30:00,
2013-01-21 01:33:00,17.4,10.6,30.16,West,264,2.0,4.0,74,0.00,,---,0.00,VWS V14.01,2013-01-21 06:33:00,
2013-01-21 01:38:00,17.5,10.6,30.16,SW,228,1.0,6.0,74,0.00,,---,0.00,VWS V14.01,2013-01-21 06:38:00,
2013-01-21 01:43:00,17.5,10.3,30.16,SW,224,1.0,6.0,73,0.00,,---,0.00,VWS V14.01,2013-01-21 06:43:00,
2013-01-21 01:48:00,17.6,10.4,30.16,West,267,1.0,6.0,73,0.00,,---,0.00,VWS V14.01,2013-01-21 06:48:00,
2013-01-21 01:53:00,17.6,10.1,30.16,West,263,0.0,6.0,72,0.00,,---,0.00,VWS V14.01,2013-01-21 06:53:00,
2013-01-21 01:58:00,17.7,10.2,30.16,West,262,2.0,6.0,72,0.00,,---,0.00,VWS V14.01,2013-01-21 06:58:00,
2013-01-21 02:00:00,17.7,9.9,30.15,WSW,246,2.0,7.0,71,0.00,,---,0.00,VWS V14.01,2013-01-21 07:00:00,
2013-01-21 02:03:00,17.8,10.3,30.16,WSW,238,3.0,4.0,72,0.00,,---,0.00,VWS V14.01,2013-01-21 07:03:00,
2013-01-21 02:08:00,17.8,10.0,30.16,WNW,283,2.0,8.0,71,0.00,,---,0.00,VWS V14.01,2013-01-21 07:08:00,
2013-01-21 02:13:00,17.9,10.1,30.16,SSW,203,5.0,10.0,71,0.00,,---,0.00,VWS V14.01,2013-01-21 07:13:00,
2013-01-21 02:18:00,17.9,9.8,30.16,WSW,248,4.0,10.0,70,0.00,,---,0.00,VWS V14.01,2013-01-21 07:18:00,
2013-01-21 02:23:00,17.9,9.8,30.16,SW,219,0.0,10.0,70,0.00,,---,0.00,VWS V14.01,2013-01-21 07:23:00,
2013-01-21 02:28:00,17.8,9.7,30.16,WSW,253,1.0,10.0,70,0.00,,---,0.00,VWS V14.01,2013-01-21 07:28:00,
2013-01-21 02:30:00,17.1,8.1,30.14,West,266,3.0,8.0,67,0.00,,---,0.00,VWS V14.01,2013-01-21 07:30:00,
2013-01-21 02:33:00,17.8,10.0,30.16,West,270,5.0,5.0,71,0.00,,---,0.00,VWS V14.01,2013-01-21 07:33:00,
2013-01-21 02:38:00,17.7,9.9,30.16,SW,215,0.0,7.0,71,0.00,,---,0.00,VWS V14.01,2013-01-21 07:38:00,
2013-01-21 02:43:00,17.7,9.9,30.16,WSW,256,0.0,7.0,71,0.00,,---,0.00,VWS V14.01,2013-01-21 07:43:00,
2013-01-21 02:48:00,17.7,9.9,30.16,WSW,253,4.0,7.0,71,0.00,,---,0.00,VWS V14.01,2013-01-21 07:48:00,
2013-01-21 02:53:00,17.7,9.9,30.15,WSW,248,0.0,7.0,71,0.00,,---,0.00,VWS V14.01,2013-01-21 07:53:00,
2013-01-21 02:58:00,17.7,9.9,30.15,WSW,245,1.0,7.0,71,0.00,,---,0.00,VWS V14.01,2013-01-21 07:58:00,
2013-01-21 03:00:00,16.6,7.9,30.14,SW,225,3.0,9.0,68,0.00,,---,0.00,VWS V14.01,2013-01-21 08:00:00,
2013-01-21 03:03:00,17.6,9.8,30.15,SW,218,0.0,2.0,71,0.00,,---,0.00,VWS V14.01,2013-01-21 08:03:00,
2013-01-21 03:08:00,17.5,9.7,30.15,West,260,2.0,8.0,71,0.00,,---,0.00,VWS V14.01,2013-01-21 08:08:00,
2013-01-21 03:13:00,17.5,9.7,30.15,WSW,250,5.0,8.0,71,0.00,,---,0.00,VWS V14.01,2013-01-21 08:13:00,
2013-01-21 03:18:00,17.4,9.3,30.15,WSW,252,6.0,8.0,70,0.00,,---,0.00,VWS V14.01,2013-01-21 08:18:00,
2013-01-21 03:23:00,17.3,8.6,30.15,WSW,251,0.0,8.0,68,0.00,,---,0.00,VWS V14.01,2013-01-21 08:23:00,
2013-01-21 03:28:00,17.1,8.4,30.15,West,264,3.0,8.0,68,0.00,,---,0.00,VWS V14.01,2013-01-21 08:28:00,
2013-01-21 03:30:00,16.6,7.6,30.12,SSW,201,2.0,9.0,67,0.00,,---,0.00,VWS V14.01,2013-01-21 08:30:00,
2013-01-21 03:33:00,17.1,8.1,30.14,West,276,1.0,9.0,67,0.00,,---,0.00,VWS V14.01,2013-01-21 08:33:00,
2013-01-21 03:38:00,17.1,8.1,30.14,West,264,1.0,9.0,67,0.00,,---,0.00,VWS V14.01,2013-01-21 08:38:00,
2013-01-21 03:43:00,17.0,8.3,30.14,WSW,243,4.0,9.0,68,0.00,,---,0.00,VWS V14.01,2013-01-21 08:43:00,
2013-01-21 03:48:00,16.8,7.8,30.14,SSW,204,2.0,9.0,67,0.00,,---,0.00,VWS V14.01,2013-01-21 08:48:00,
2013-01-21 03:53:00,16.7,7.7,30.14,West,269,3.0,9.0,67,0.00,,---,0.00,VWS V14.01,2013-01-21 08:53:00,
2013-01-21 03:58:00,16.7,8.0,30.14,SW,232,2.0,9.0,68,0.00,,---,0.00,VWS V14.01,2013-01-21 08:58:00,
2013-01-21 04:00:00,16.6,7.6,30.12,SSW,203,0.0,9.0,67,0.00,,---,0.00,VWS V14.01,2013-01-21 09:00:00,
2013-01-21 04:03:00,16.6,7.9,30.13,West,264,1.0,6.0,68,0.00,,---,0.00,VWS V14.01,2013-01-21 09:03:00,
2013-01-21 04:09:00,16.5,7.8,30.13,South,181,2.0,6.0,68,0.00,,---,0.00,VWS V14.01,2013-01-21 09:09:00,
2013-01-21 04:14:00,16.5,7.8,30.13,WSW,247,3.0,8.0,68,0.00,,---,0.00,VWS V14.01,2013-01-21 09:14:00,
2013-01-21 04:19:00,16.5,7.8,30.13,SW,228,6.0,8.0,68,0.00,,---,0.00,VWS V14.01,2013-01-21 09:19:00,
2013-01-21 04:24:00,16.5,7.8,30.13,NW,311,2.0,8.0,68,0.00,,---,0.00,VWS V14.01,2013-01-21 09:24:00,
2013-01-21 04:29:00,16.5,7.5,30.13,WNW,285,3.0,9.0,67,0.00,,---,0.00,VWS V14.01,2013-01-21 09:29:00,
2013-01-21 04:30:00,16.4,7.4,30.11,North,1,0.0,12.0,67,0.00,,---,0.00,VWS V14.01,2013-01-21 09:30:00,
2013-01-21 04:34:00,16.6,7.6,30.12,West,278,2.0,6.0,67,0.00,,---,0.00,VWS V14.01,2013-01-21 09:34:00,
2013-01-21 04:39:00,16.6,7.6,30.12,West,276,3.0,9.0,67,0.00,,---,0.00,VWS V14.01,2013-01-21 09:39:00,
2013-01-21 04:44:00,16.6,7.6,30.12,WNW,295,4.0,9.0,67,0.00,,---,0.00,VWS V14.01,2013-01-21 09:44:00,
2013-01-21 04:49:00,16.6,7.6,30.12,SW,231,3.0,9.0,67,0.00,,---,0.00,VWS V14.01,2013-01-21 09:49:00,
2013-01-21 04:54:00,16.6,7.9,30.12,West,269,6.0,9.0,68,0.00,,---,0.00,VWS V14.01,2013-01-21 09:54:00,
2013-01-21 04:59:00,16.6,7.2,30.12,WSW,243,2.0,9.0,66,0.00,,---,0.00,VWS V14.01,2013-01-21 09:59:00,
2013-01-21 05:00:00,16.2,5.5,30.11,NW,320,2.0,12.0,62,0.00,,---,0.00,VWS V14.01,2013-01-21 10:00:00,
2013-01-21 05:04:00,16.6,7.9,30.12,WNW,297,2.0,2.0,68,0.00,,---,0.00,VWS V14.01,2013-01-21 10:04:00,
2013-01-21 05:09:00,16.6,7.2,30.11,SW,226,2.0,12.0,66,0.00,,---,0.00,VWS V14.01,2013-01-21 10:09:00,
2013-01-21 05:14:00,16.5,7.1,30.11,West,267,6.0,12.0,66,0.00,,---,0.00,VWS V14.01,2013-01-21 10:14:00,
2013-01-21 05:19:00,16.5,7.5,30.11,SSW,201,1.0,12.0,67,0.00,,---,0.00,VWS V14.01,2013-01-21 10:19:00,
2013-01-21 05:24:00,16.4,7.4,30.11,West,262,1.0,12.0,67,0.00,,---,0.00,VWS V14.01,2013-01-21 10:24:00,
2013-01-21 05:29:00,16.4,7.7,30.11,WNW,292,0.0,12.0,68,0.00,,---,0.00,VWS V14.01,2013-01-21 10:29:00,
2013-01-21 05:30:00,16.0,4.6,30.11,WSW,257,2.0,9.0,60,0.00,,---,0.00,VWS V14.01,2013-01-21 10:30:00,
2013-01-21 05:34:00,16.4,7.4,30.11,WNW,290,1.0,5.0,67,0.00,,---,0.00,VWS V14.01,2013-01-21 10:34:00,
2013-01-21 05:39:00,16.4,7.0,30.11,NNW,339,2.0,8.0,66,0.00,,---,0.00,VWS V14.01,2013-01-21 10:39:00,
2013-01-21 05:44:00,16.3,6.9,30.11,SW,224,4.0,9.0,66,0.00,,---,0.00,VWS V14.01,2013-01-21 10:44:00,
2013-01-21 05:49:00,16.3,6.3,30.11,WSW,253,0.0,9.0,64,0.00,,---,0.00,VWS V14.01,2013-01-21 10:49:00,
2013-01-21 05:54:00,16.2,5.5,30.11,NW,312,4.0,12.0,62,0.00,,---,0.00,VWS V14.01,2013-01-21 10:54:00,
2013-01-21 05:59:00,16.2,5.5,30.11,NNE,19,2.0,12.0,62,0.00,,---,0.00,VWS V14.01,2013-01-21 10:59:00,
2013-01-21 06:00:00,15.8,5.1,30.12,WNW,291,5.0,11.0,62,0.00,,---,0.00,VWS V14.01,2013-01-21 11:00:00,
2013-01-21 06:04:00,16.2,5.5,30.11,WSW,255,4.0,9.0,62,0.00,,---,0.00,VWS V14.01,2013-01-21 11:04:00,
2013-01-21 06:09:00,16.2,5.5,30.11,WSW,250,4.0,9.0,62,0.00,,---,0.00,VWS V14.01,2013-01-21 11:09:00,
2013-01-21 06:14:00,16.2,5.5,30.11,SSW,195,0.0,9.0,62,0.00,,---,0.00,VWS V14.01,2013-01-21 11:14:00,
2013-01-21 06:19:00,16.1,5.4,30.11,West,262,0.0,9.0,62,0.00,,---,0.00,VWS V14.01,2013-01-21 11:19:00,
2013-01-21 06:24:00,16.1,5.4,30.11,SW,225,6.0,9.0,62,0.00,,---,0.00,VWS V14.01,2013-01-21 11:24:00,
2013-01-21 06:29:00,16.0,4.9,30.11,West,269,3.0,9.0,61,0.00,,---,0.00,VWS V14.01,2013-01-21 11:29:00,
2013-01-21 06:30:00,15.5,5.8,30.11,SW,229,2.0,11.0,65,0.00,,---,0.00,VWS V14.01,2013-01-21 11:30:00,
2013-01-21 06:34:00,16.0,4.6,30.11,WSW,243,10.0,10.0,60,0.00,,---,0.00,VWS V14.01,2013-01-21 11:34:00,
2013-01-21 06:39:00,15.9,4.1,30.11,West,270,0.0,11.0,59,0.00,,---,0.00,VWS V14.01,2013-01-21 11:39:00,
2013-01-21 06:44:00,15.9,4.1,30.11,WSW,250,5.0,11.0,59,0.00,,---,0.00,VWS V14.01,2013-01-21 11:44:00,
2013-01-21 06:49:00,15.9,4.5,30.12,SW,229,11.0,11.0,60,0.00,,---,0.00,VWS V14.01,2013-01-21 11:49:00,
2013-01-21 06:54:00,15.8,4.8,30.12,SW,235,2.0,11.0,61,0.00,,---,0.00,VWS V14.01,2013-01-21 11:54:00,
2013-01-21 06:59:00,15.8,5.1,30.11,NNW,329,1.0,11.0,62,0.00,,---,0.00,VWS V14.01,2013-01-21 11:59:00,
2013-01-21 07:00:00,15.5,6.5,30.11,West,261,5.0,13.0,67,0.00,,---,0.00,VWS V14.01,2013-01-21 12:00:00,
2013-01-21 07:04:00,15.8,5.1,30.11,NNW,328,2.0,11.0,62,0.00,,---,0.00,VWS V14.01,2013-01-21 12:04:00,
2013-01-21 07:09:00,15.7,5.4,30.11,West,260,1.0,11.0,63,0.00,,---,0.00,VWS V14.01,2013-01-21 12:09:00,
2013-01-21 07:14:00,15.6,5.6,30.11,WNW,286,5.0,11.0,64,0.00,,---,0.00,VWS V14.01,2013-01-21 12:14:00,
2013-01-21 07:19:00,15.5,5.5,30.11,NNW,335,2.0,11.0,64,0.00,,---,0.00,VWS V14.01,2013-01-21 12:19:00,
2013-01-21 07:24:00,15.5,5.5,30.11,WNW,298,8.0,11.0,64,0.00,,---,0.00,VWS V14.01,2013-01-21 12:24:00,
2013-01-21 07:29:00,15.5,5.8,30.11,West,278,6.0,11.0,65,0.00,,---,0.00,VWS V14.01,2013-01-21 12:29:00,
2013-01-21 07:30:00,15.2,6.6,30.10,SW,231,8.0,13.0,68,0.00,,---,0.00,VWS V14.01,2013-01-21 12:30:00,
2013-01-21 07:34:00,15.5,5.8,30.11,WSW,255,5.0,7.0,65,0.00,,---,0.00,VWS V14.01,2013-01-21 12:34:00,
2013-01-21 07:39:00,15.5,6.2,30.11,WSW,253,9.0,13.0,66,0.00,,---,0.00,VWS V14.01,2013-01-21 12:39:00,
2013-01-21 07:44:00,15.5,5.8,30.11,WNW,302,4.0,13.0,65,0.00,,---,0.00,VWS V14.01,2013-01-21 12:44:00,
2013-01-21 07:49:00,15.5,5.8,30.11,NNE,30,1.0,13.0,65,0.00,,---,0.00,VWS V14.01,2013-01-21 12:49:00,
2013-01-21 07:54:00,15.5,5.8,30.11,WSW,256,1.0,13.0,65,0.00,,---,0.00,VWS V14.01,2013-01-21 12:54:00,
2013-01-21 07:59:00,15.5,6.2,30.11,WNW,291,1.0,13.0,66,0.00,,---,0.00,VWS V14.01,2013-01-21 12:59:00,
2013-01-21 08:00:00,15.1,6.5,30.10,WSW,257,4.0,12.0,68,0.00,,---,0.00,VWS V14.01,2013-01-21 13:00:00,
2013-01-21 08:04:00,15.5,6.8,30.11,SE,129,1.0,7.0,68,0.00,,---,0.00,VWS V14.01,2013-01-21 13:04:00,
2013-01-21 08:09:00,15.4,7.4,30.10,WSW,257,4.0,8.0,70,0.00,,---,0.00,VWS V14.01,2013-01-21 13:09:00,
2013-01-21 08:14:00,15.4,7.7,30.11,West,267,4.0,8.0,71,0.00,,---,0.00,VWS V14.01,2013-01-21 13:14:00,
2013-01-21 08:19:00,15.4,6.7,30.11,WNW,295,4.0,13.0,68,0.00,,---,0.00,VWS V14.01,2013-01-21 13:19:00,
2013-01-21 08:25:00,15.2,6.6,30.11,WNW,286,7.0,13.0,68,0.00,,---,0.00,VWS V14.01,2013-01-21 13:25:00,
2013-01-21 08:30:00,15.2,6.6,30.10,NW,321,0.0,13.0,68,0.00,,---,0.00,VWS V14.01,2013-01-21 13:30:00,
2013-01-21 08:35:00,15.2,6.6,30.10,West,266,4.0,9.0,68,0.00,,---,0.00,VWS V14.01,2013-01-21 13:35:00,
2013-01-21 08:40:00,15.2,6.6,30.10,NW,304,2.0,9.0,68,0.00,,---,0.00,VWS V14.01,2013-01-21 13:40:00,
2013-01-21 08:45:00,15.2,6.6,30.10,SW,225,6.0,12.0,68,0.00,,---,0.00,VWS V14.01,2013-01-21 13:45:00,
2013-01-21 08:50:00,15.2,6.2,30.11,SSW,203,5.0,12.0,67,0.00,,---,0.00,VWS V14.01,2013-01-21 13:50:00,
2013-01-21 08:55:00,15.1,6.1,30.10,WSW,253,3.0,12.0,67,0.00,,---,0.00,VWS V14.01,2013-01-21 13:55:00,
2013-01-21 09:00:00,15.1,6.5,30.11,WSW,243,7.0,12.0,68,0.00,,---,0.00,VWS V14.01,2013-01-21 14:00:00,
2013-01-21 09:05:00,15.2,6.9,30.11,West,264,6.0,8.0,69,0.00,,---,0.00,VWS V14.01,2013-01-21 14:05:00,
2013-01-21 09:10:00,15.1,6.8,30.11,West,276,3.0,15.0,69,0.00,,---,0.00,VWS V14.01,2013-01-21 14:10:00,
2013-01-21 09:15:00,14.8,6.8,30.11,West,261,3.0,15.0,70,0.00,,---,0.00,VWS V14.01,2013-01-21 14:15:00,
2013-01-21 09:20:00,14.6,6.6,30.12,WSW,243,7.0,15.0,70,0.00,,---,0.00,VWS V14.01,2013-01-21 14:20:00,
2013-01-21 09:25:00,14.3,6.3,30.11,West,264,6.0,15.0,70,0.00,,---,0.00,VWS V14.01,2013-01-21 14:25:00,
2013-01-21 09:30:00,14.3,5.7,30.11,West,277,6.0,15.0,68,0.00,,---,0.00,VWS V14.01,2013-01-21 14:30:00,
2013-01-21 09:35:00,14.3,6.3,30.11,SW,235,7.0,10.0,70,0.00,,---,0.00,VWS V14.01,2013-01-21 14:35:00,
2013-01-21 09:40:00,14.3,6.6,30.12,ENE,67,2.0,12.0,71,0.00,,---,0.00,VWS V14.01,2013-01-21 14:40:00,
2013-01-21 09:45:00,14.3,6.0,30.12,WNW,291,7.0,12.0,69,0.00,,---,0.00,VWS V14.01,2013-01-21 14:45:00,
2013-01-21 09:50:00,14.1,5.8,30.12,West,274,3.0,14.0,69,0.00,,---,0.00,VWS V14.01,2013-01-21 14:50:00,
2013-01-21 09:55:00,14.1,5.5,30.12,West,280,4.0,14.0,68,0.00,,---,0.00,VWS V14.01,2013-01-21 14:55:00,
2013-01-21 10:00:00,14.1,5.2,30.12,West,266,2.0,14.0,67,0.00,,---,0.00,VWS V14.01,2013-01-21 15:00:00,
2013-01-21 10:05:00,14.2,5.3,30.13,West,274,3.0,12.0,67,0.00,,---,0.00,VWS V14.01,2013-01-21 15:05:00,
2013-01-21 10:10:00,14.2,5.3,30.13,NNW,331,6.0,15.0,67,0.00,,---,0.00,VWS V14.01,2013-01-21 15:10:00,
2013-01-21 10:15:00,14.1,5.5,30.12,South,176,4.0,15.0,68,0.00,,---,0.00,VWS V14.01,2013-01-21 15:15:00,
2013-01-21 10:20:00,14.3,5.7,30.12,WSW,248,6.0,15.0,68,0.00,,---,0.00,VWS V14.01,2013-01-21 15:20:00,
2013-01-21 10:25:00,14.8,6.5,30.12,West,264,5.0,16.0,69,0.00,,---,0.00,VWS V14.01,2013-01-21 15:25:00,
2013-01-21 10:30:00,15.3,7.0,30.12,WNW,283,7.0,16.0,69,0.00,,---,0.00,VWS V14.01,2013-01-21 15:30:00,
2013-01-21 10:35:00,15.3,6.3,30.12,WNW,290,1.0,10.0,67,0.00,,---,0.00,VWS V14.01,2013-01-21 15:35:00,
2013-01-21 10:41:00,14.7,5.4,30.12,SSE,149,5.0,5.0,66,0.00,,---,0.00,VWS V14.01,2013-01-21 15:41:00,
2013-01-21 10:46:00,14.8,6.5,30.12,SSW,207,2.0,13.0,69,0.00,,---,0.00,VWS V14.01,2013-01-21 15:46:00,
2013-01-21 10:51:00,14.5,6.5,30.12,WSW,245,7.0,14.0,70,0.00,,---,0.00,VWS V14.01,2013-01-21 15:51:00,
2013-01-21 10:57:00,14.1,6.1,30.12,SW,221,4.0,14.0,70,0.00,,---,0.00,VWS V14.01,2013-01-21 15:57:00,
2013-01-21 11:00:00,16.0,1.1,30.11,WNW,283,6.0,17.0,51,0.00,,---,0.00,VWS V14.01,2013-01-21 16:00:00,
2013-01-21 11:02:00,14.0,5.4,30.12,West,276,6.0,14.0,68,0.00,,---,0.00,VWS V14.01,2013-01-21 16:02:00,
2013-01-21 11:07:00,14.6,5.7,30.12,North,360,5.0,14.0,67,0.00,,---,0.00,VWS V14.01,2013-01-21 16:07:00,
2013-01-21 11:12:00,14.5,4.2,30.12,NW,323,5.0,15.0,63,0.00,,---,0.00,VWS V14.01,2013-01-21 16:12:00,
2013-01-21 11:17:00,14.5,4.2,30.12,West,267,7.0,15.0,63,0.00,,---,0.00,VWS V14.01,2013-01-21 16:17:00,
2013-01-21 11:22:00,14.5,3.9,30.12,WNW,295,7.0,15.0,62,0.00,,---,0.00,VWS V14.01,2013-01-21 16:22:00,
2013-01-21 11:27:00,14.4,3.4,30.12,WSW,243,1.0,15.0,61,0.00,,---,0.00,VWS V14.01,2013-01-21 16:27:00,
2013-01-21 11:30:00,17.5,3.7,30.10,West,264,4.0,26.0,54,0.00,,---,0.00,VWS V14.01,2013-01-21 16:30:00,
2013-01-21 11:32:00,14.4,3.1,30.12,NW,315,2.0,17.0,60,0.00,,---,0.00,VWS V14.01,2013-01-21 16:32:00,
2013-01-21 11:37:00,15.2,3.5,30.11,West,270,8.0,15.0,59,0.00,,---,0.00,VWS V14.01,2013-01-21 16:37:00,
2013-01-21 11:42:00,15.1,2.6,30.12,West,278,9.0,17.0,57,0.00,,---,0.00,VWS V14.01,2013-01-21 16:42:00,
2013-01-21 11:47:00,15.1,2.2,30.11,NNW,328,8.0,17.0,56,0.00,,---,0.00,VWS V14.01,2013-01-21 16:47:00,
2013-01-21 11:52:00,15.2,2.0,30.11,WSW,253,5.0,17.0,55,0.00,,---,0.00,VWS V14.01,2013-01-21 16:52:00,
2013-01-21 11:57:00,16.0,2.3,30.11,NW,308,6.0,17.0,54,0.00,,---,0.00,VWS V14.01,2013-01-21 16:57:00,
2013-01-21 12:00:00,15.9,4.8,30.09,NNW,329,6.0,20.0,61,0.00,,---,0.00,VWS V14.01,2013-01-21 17:00:00,
2013-01-21 12:02:00,16.0,1.1,30.11,WNW,283,6.0,17.0,51,0.00,,---,0.00,VWS V14.01,2013-01-21 17:02:00,
2013-01-21 12:07:00,16.0,1.9,30.11,WSW,248,10.0,19.0,53,0.00,,---,0.00,VWS V14.01,2013-01-21 17:07:00,
2013-01-21 12:12:00,16.2,2.5,30.10,NNW,335,6.0,19.0,54,0.00,,---,0.00,VWS V14.01,2013-01-21 17:12:00,
2013-01-21 12:17:00,16.4,2.7,30.10,East,84,3.0,19.0,54,0.00,,---,0.00,VWS V14.01,2013-01-21 17:17:00,
2013-01-21 12:22:00,17.2,3.8,30.11,West,269,7.0,19.0,55,0.00,,---,0.00,VWS V14.01,2013-01-21 17:22:00,
2013-01-21 12:27:00,17.5,4.1,30.10,WNW,295,8.0,19.0,55,0.00,,---,0.00,VWS V14.01,2013-01-21 17:27:00,
2013-01-21 12:30:00,15.6,3.1,30.08,WSW,249,9.0,15.0,57,0.00,,---,0.00,VWS V14.01,2013-01-21 17:30:00,
2013-01-21 12:32:00,17.5,3.7,30.10,West,264,4.0,5.0,54,0.00,,---,0.00,VWS V14.01,2013-01-21 17:32:00,
2013-01-21 12:37:00,17.2,4.2,30.10,WSW,250,16.0,18.0,56,0.00,,---,0.00,VWS V14.01,2013-01-21 17:37:00,
2013-01-21 12:42:00,16.6,3.7,30.10,WSW,256,6.0,18.0,56,0.00,,---,0.00,VWS V14.01,2013-01-21 17:42:00,
2013-01-21 12:47:00,16.0,4.2,30.09,WNW,282,2.0,18.0,59,0.00,,---,0.00,VWS V14.01,2013-01-21 17:47:00,
2013-01-21 12:52:00,15.9,4.1,30.10,WSW,241,14.0,18.0,59,0.00,,---,0.00,VWS V14.01,2013-01-21 17:52:00,
2013-01-21 12:57:00,16.5,5.1,30.10,WSW,239,14.0,20.0,60,0.00,,---,0.00,VWS V14.01,2013-01-21 17:57:00,
2013-01-21 13:00:00,15.1,5.8,30.09,West,269,7.0,17.0,66,0.00,,---,0.00,VWS V14.01,2013-01-21 18:00:00,
2013-01-21 13:02:00,15.9,4.8,30.09,West,274,2.0,7.0,61,0.00,,---,0.00,VWS V14.01,2013-01-21 18:02:00,
2013-01-21 13:07:00,15.9,3.4,30.09,WSW,248,3.0,13.0,57,0.00,,---,0.00,VWS V14.01,2013-01-21 18:07:00,
2013-01-21 13:12:00,16.7,3.7,30.08,WSW,239,3.0,13.0,56,0.00,,---,0.00,VWS V14.01,2013-01-21 18:12:00,
2013-01-21 13:18:00,16.5,2.4,30.08,SSW,208,10.0,13.0,53,0.00,,---,0.00,VWS V14.01,2013-01-21 18:18:00,
2013-01-21 13:23:00,16.2,3.3,30.08,WNW,285,12.0,15.0,56,0.00,,---,0.00,VWS V14.01,2013-01-21 18:23:00,
2013-01-21 13:28:00,15.8,4.4,30.08,WNW,300,3.0,15.0,60,0.00,,---,0.00,VWS V14.01,2013-01-21 18:28:00,
2013-01-21 13:30:00,16.2,6.2,30.09,NW,321,4.0,17.0,64,0.00,,---,0.00,VWS V14.01,2013-01-21 18:30:00,
2013-01-21 13:33:00,15.6,3.1,30.08,WSW,246,7.0,9.0,57,0.00,,---,0.00,VWS V14.01,2013-01-21 18:33:00,
2013-01-21 13:38:00,15.6,2.3,30.08,West,263,5.0,16.0,55,0.00,,---,0.00,VWS V14.01,2013-01-21 18:38:00,
2013-01-21 13:43:00,16.4,1.9,30.08,NW,318,7.0,16.0,52,0.00,,---,0.00,VWS V14.01,2013-01-21 18:43:00,
2013-01-21 13:48:00,17.1,2.1,30.08,WNW,284,8.0,16.0,51,0.00,,---,0.00,VWS V14.01,2013-01-21 18:48:00,
2013-01-21 13:53:00,16.6,4.4,30.08,WSW,239,7.0,17.0,58,0.00,,---,0.00,VWS V14.01,2013-01-21 18:53:00,
2013-01-21 13:58:00,15.7,6.7,30.08,WNW,294,6.0,17.0,67,0.00,,---,0.00,VWS V14.01,2013-01-21 18:58:00,
2013-01-21 14:00:00,13.8,5.8,30.11,NNW,336,14.0,15.0,70,0.00,,---,0.00,VWS V14.01,2013-01-21 19:00:00,
2013-01-21 14:03:00,14.9,5.6,30.09,NW,312,9.0,9.0,66,0.00,,---,0.00,VWS V14.01,2013-01-21 19:03:00,
2013-01-21 14:08:00,14.7,4.4,30.09,WSW,253,6.0,12.0,63,0.00,,---,0.00,VWS V14.01,2013-01-21 19:08:00,
2013-01-21 14:13:00,15.2,4.2,30.09,WSW,239,10.0,16.0,61,0.00,,---,0.00,VWS V14.01,2013-01-21 19:13:00,
2013-01-21 14:18:00,16.6,5.5,30.09,WSW,238,4.0,16.0,61,0.00,,---,0.00,VWS V14.01,2013-01-21 19:18:00,
2013-01-21 14:23:00,17.1,6.0,30.09,SW,217,2.0,16.0,61,0.00,,---,0.00,VWS V14.01,2013-01-21 19:23:00,
2013-01-21 14:28:00,17.1,5.6,30.09,SW,232,6.0,17.0,60,0.00,,---,0.00,VWS V14.01,2013-01-21 19:28:00,
2013-01-21 14:30:00,13.5,7.4,30.11,West,281,2.0,19.0,76,0.00,,---,0.00,VWS V14.01,2013-01-21 19:30:00,
2013-01-21 14:33:00,16.1,6.4,30.09,NW,308,4.0,7.0,65,0.00,,---,0.00,VWS V14.01,2013-01-21 19:33:00,
2013-01-21 14:38:00,14.6,8.1,30.10,WNW,290,4.0,13.0,75,0.00,,---,0.00,VWS V14.01,2013-01-21 19:38:00,
2013-01-21 14:43:00,14.7,7.0,30.10,WNW,283,7.0,14.0,71,0.00,,---,0.00,VWS V14.01,2013-01-21 19:43:00,
2013-01-21 14:48:00,14.3,5.4,30.10,WNW,284,14.0,15.0,67,0.00,,---,0.00,VWS V14.01,2013-01-21 19:48:00,
2013-01-21 14:53:00,13.6,6.0,30.10,West,260,7.0,15.0,71,0.00,,---,0.00,VWS V14.01,2013-01-21 19:53:00,
2013-01-21 14:58:00,13.8,5.8,30.10,NNW,336,4.0,15.0,70,0.00,,---,0.00,VWS V14.01,2013-01-21 19:58:00,
2013-01-21 15:00:00,11.9,4.9,30.13,SSW,207,3.0,17.0,73,0.00,,---,0.00,VWS V14.01,2013-01-21 20:00:00,
2013-01-21 15:03:00,13.7,6.1,30.11,West,267,7.0,14.0,71,0.00,,---,0.00,VWS V14.01,2013-01-21 20:03:00,
2013-01-21 15:08:00,13.3,6.9,30.11,West,264,3.0,14.0,75,0.00,,---,0.00,VWS V14.01,2013-01-21 20:08:00,
2013-01-21 15:13:00,13.4,7.0,30.11,NW,309,3.0,14.0,75,0.00,,---,0.00,VWS V14.01,2013-01-21 20:13:00,
2013-01-21 15:18:00,14.3,6.0,30.11,NNE,26,8.0,14.0,69,0.00,,---,0.00,VWS V14.01,2013-01-21 20:18:00,
2013-01-21 15:23:00,14.0,6.0,30.12,WNW,302,2.0,19.0,70,0.00,,---,0.00,VWS V14.01,2013-01-21 20:23:00,
2013-01-21 15:28:00,13.1,6.1,30.12,West,276,2.0,19.0,73,0.00,,---,0.00,VWS V14.01,2013-01-21 20:28:00,
2013-01-21 15:30:00,11.7,2.5,30.14,West,259,4.0,20.0,66,0.00,,---,0.00,VWS V14.01,2013-01-21 20:30:00,
2013-01-21 15:33:00,13.7,7.3,30.11,WSW,255,6.0,17.0,75,0.00,,---,0.00,VWS V14.01,2013-01-21 20:33:00,
2013-01-21 15:38:00,13.4,5.8,30.12,SW,232,5.0,17.0,71,0.00,,---,0.00,VWS V14.01,2013-01-21 20:38:00,
2013-01-21 15:43:00,13.2,6.2,30.12,NW,308,5.0,17.0,73,0.00,,---,0.00,VWS V14.01,2013-01-21 20:43:00,
2013-01-21 15:48:00,12.7,6.9,30.12,WNW,288,4.0,17.0,77,0.00,,---,0.00,VWS V14.01,2013-01-21 20:48:00,
2013-01-21 15:53:00,12.4,4.2,30.13,WSW,249,2.0,17.0,69,0.00,,---,0.00,VWS V14.01,2013-01-21 20:53:00,
2013-01-21 15:58:00,12.1,4.2,30.13,WNW,288,3.0,17.0,70,0.00,,---,0.00,VWS V14.01,2013-01-21 20:58:00,
2013-01-21 16:00:00,12.1,-1.0,30.15,NW,316,5.0,13.0,55,0.00,,---,0.00,VWS V14.01,2013-01-21 21:00:00,
2013-01-21 16:03:00,11.8,5.1,30.13,WSW,253,3.0,4.0,74,0.00,,---,0.00,VWS V14.01,2013-01-21 21:03:00,
2013-01-21 16:08:00,11.7,4.1,30.14,NW,311,2.0,12.0,71,0.00,,---,0.00,VWS V14.01,2013-01-21 21:08:00,
2013-01-21 16:13:00,11.9,4.0,30.14,WSW,242,5.0,12.0,70,0.00,,---,0.00,VWS V14.01,2013-01-21 21:13:00,
2013-01-21 16:18:00,11.8,3.6,30.14,WNW,290,6.0,13.0,69,0.00,,---,0.00,VWS V14.01,2013-01-21 21:18:00,
2013-01-21 16:23:00,11.7,3.2,30.14,WNW,300,2.0,20.0,68,0.00,,---,0.00,VWS V14.01,2013-01-21 21:23:00,
2013-01-21 16:28:00,11.6,3.1,30.14,SW,226,12.0,20.0,68,0.00,,---,0.00,VWS V14.01,2013-01-21 21:28:00,
2013-01-21 16:30:00,11.0,-1.6,30.16,WNW,301,3.0,15.0,56,0.00,,---,0.00,VWS V14.01,2013-01-21 21:30:00,
2013-01-21 16:33:00,11.7,2.5,30.14,North,1,4.0,8.0,66,0.00,,---,0.00,VWS V14.01,2013-01-21 21:33:00,
2013-01-21 16:38:00,11.9,2.1,30.15,North,1,3.0,9.0,64,0.00,,---,0.00,VWS V14.01,2013-01-21 21:38:00,
2013-01-21 16:43:00,12.1,1.6,30.15,NNW,339,1.0,12.0,62,0.00,,---,0.00,VWS V14.01,2013-01-21 21:43:00,
2013-01-21 16:48:00,12.5,0.9,30.15,West,269,8.0,12.0,59,0.00,,---,0.00,VWS V14.01,2013-01-21 21:48:00,
2013-01-21 16:53:00,12.4,0.4,30.15,NW,321,8.0,13.0,58,0.00,,---,0.00,VWS V14.01,2013-01-21 21:53:00,
2013-01-21 16:59:00,12.2,-0.5,30.15,WNW,290,5.0,13.0,56,0.00,,---,0.00,VWS V14.01,2013-01-21 21:59:00,
2013-01-21 17:00:00,9.5,0.8,30.17,WSW,255,4.0,10.0,67,0.00,,---,0.00,VWS V14.01,2013-01-21 22:00:00,
2013-01-21 17:04:00,12.0,-1.1,30.15,WSW,256,12.0,12.0,55,0.00,,---,0.00,VWS V14.01,2013-01-21 22:04:00,
2013-01-21 17:09:00,11.8,-1.6,30.15,West,278,6.0,15.0,54,0.00,,---,0.00,VWS V14.01,2013-01-21 22:09:00,
2013-01-21 17:14:00,11.7,-1.3,30.15,NNW,327,3.0,15.0,55,0.00,,---,0.00,VWS V14.01,2013-01-21 22:14:00,
2013-01-21 17:19:00,11.5,-1.1,30.16,WSW,242,4.0,15.0,56,0.00,,---,0.00,VWS V14.01,2013-01-21 22:19:00,
2013-01-21 17:24:00,11.4,-0.9,30.16,NW,318,8.0,15.0,57,0.00,,---,0.00,VWS V14.01,2013-01-21 22:24:00,
2013-01-21 17:29:00,11.2,-1.4,30.16,NW,311,4.0,15.0,56,0.00,,---,0.00,VWS V14.01,2013-01-21 22:29:00,
2013-01-21 17:30:00,9.0,-1.0,30.17,WSW,243,0.0,11.0,63,0.00,,---,0.00,VWS V14.01,2013-01-21 22:30:00,
2013-01-21 17:34:00,10.9,-1.3,30.16,NW,323,3.0,5.0,57,0.00,,---,0.00,VWS V14.01,2013-01-21 22:34:00,
2013-01-21 17:39:00,10.5,-1.3,30.16,NNW,333,4.0,10.0,58,0.00,,---,0.00,VWS V14.01,2013-01-21 22:39:00,
2013-01-21 17:44:00,10.2,-1.3,30.16,WNW,289,4.0,10.0,59,0.00,,---,0.00,VWS V14.01,2013-01-21 22:44:00,
2013-01-21 17:49:00,10.0,-1.1,30.17,West,280,6.0,10.0,60,0.00,,---,0.00,VWS V14.01,2013-01-21 22:49:00,
2013-01-21 17:54:00,9.8,0.4,30.17,West,274,2.0,10.0,65,0.00,,---,0.00,VWS V14.01,2013-01-21 22:54:00,
2013-01-21 17:59:00,9.5,0.8,30.17,NNW,331,2.0,10.0,67,0.00,,---,0.00,VWS V14.01,2013-01-21 22:59:00,
2013-01-21 18:00:00,8.7,-1.3,30.18,South,191,2.0,13.0,63,0.00,,---,0.00,VWS V14.01,2013-01-21 23:00:00,
2013-01-21 18:04:00,9.4,0.7,30.17,NW,307,2.0,8.0,67,0.00,,---,0.00,VWS V14.01,2013-01-21 23:04:00,
2013-01-21 18:09:00,9.4,0.0,30.17,WNW,284,2.0,10.0,65,0.00,,---,0.00,VWS V14.01,2013-01-21 23:09:00,
2013-01-21 18:14:00,9.3,-0.4,30.17,SW,219,5.0,11.0,64,0.00,,---,0.00,VWS V14.01,2013-01-21 23:14:00,
2013-01-21 18:19:00,9.3,-0.4,30.17,SSW,195,5.0,11.0,64,0.00,,---,0.00,VWS V14.01,2013-01-21 23:19:00,
2013-01-21 18:24:00,9.1,0.1,30.17,WNW,290,2.0,11.0,66,0.00,,---,0.00,VWS V14.01,2013-01-21 23:24:00,
2013-01-21 18:29:00,9.0,-0.4,30.17,WSW,255,5.0,11.0,65,0.00,,---,0.00,VWS V14.01,2013-01-21 23:29:00,
2013-01-21 18:30:00,8.3,-0.1,30.18,SW,235,10.0,11.0,68,0.00,,---,0.00,VWS V14.01,2013-01-21 23:30:00,
2013-01-21 18:34:00,9.0,-1.0,30.17,WNW,283,3.0,5.0,63,0.00,,---,0.00,VWS V14.01,2013-01-21 23:34:00,
2013-01-21 18:39:00,9.0,-1.7,30.17,NW,316,5.0,13.0,61,0.00,,---,0.00,VWS V14.01,2013-01-21 23:39:00,
2013-01-21 18:44:00,8.9,-1.5,30.17,WSW,249,4.0,13.0,62,0.00,,---,0.00,VWS V14.01,2013-01-21 23:44:00,
2013-01-21 18:49:00,8.9,-1.8,30.17,NW,306,3.0,13.0,61,0.00,,---,0.00,VWS V14.01,2013-01-21 23:49:00,
2013-01-21 18:54:00,8.9,-1.5,30.17,South,189,3.0,13.0,62,0.00,,---,0.00,VWS V14.01,2013-01-21 23:54:00,
2013-01-21 18:59:00,8.7,-1.6,30.17,SW,232,1.0,13.0,62,0.00,,---,0.00,VWS V14.01,2013-01-21 23:59:00,
2013-01-21 19:00:00,8.1,-1.9,30.18,West,269,1.0,13.0,63,0.00,,---,0.00,VWS V14.01,2013-01-22 00:00:00,
2013-01-21 19:04:00,8.7,-1.3,30.18,NNW,330,6.0,6.0,63,0.00,,---,0.00,VWS V14.01,2013-01-22 00:04:00,
2013-01-21 19:09:00,8.7,-1.6,30.18,WNW,284,2.0,10.0,62,0.00,,---,0.00,VWS V14.01,2013-01-22 00:09:00,
2013-01-21 19:14:00,8.7,-1.3,30.18,WSW,239,4.0,10.0,63,0.00,,---,0.00,VWS V14.01,2013-01-22 00:14:00,
2013-01-21 19:19:00,8.6,-1.4,30.18,WNW,294,1.0,10.0,63,0.00,,---,0.00,VWS V14.01,2013-01-22 00:19:00,
2013-01-21 19:24:00,8.4,-0.3,30.18,SW,233,5.0,10.0,67,0.00,,---,0.00,VWS V14.01,2013-01-22 00:24:00,
2013-01-21 19:29:00,8.3,-0.1,30.18,SW,235,6.0,11.0,68,0.00,,---,0.00,VWS V14.01,2013-01-22 00:29:00,
2013-01-21 19:30:00,7.9,-2.4,30.19,West,264,3.0,14.0,62,0.00,,---,0.00,VWS V14.01,2013-01-22 00:30:00,
2013-01-21 19:34:00,8.3,-0.4,30.18,SW,226,1.0,10.0,67,0.00,,---,0.00,VWS V14.01,2013-01-22 00:34:00,
2013-01-21 19:39:00,8.3,-0.7,30.18,SW,217,3.0,13.0,66,0.00,,---,0.00,VWS V14.01,2013-01-22 00:39:00,
2013-01-21 19:44:00,8.2,-0.8,30.18,WSW,245,3.0,13.0,66,0.00,,---,0.00,VWS V14.01,2013-01-22 00:44:00,
2013-01-21 19:49:00,8.2,-1.1,30.18,WSW,243,10.0,13.0,65,0.00,,---,0.00,VWS V14.01,2013-01-22 00:49:00,
2013-01-21 19:54:00,8.2,-1.5,30.18,WNW,295,3.0,13.0,64,0.00,,---,0.00,VWS V14.01,2013-01-22 00:54:00,
2013-01-21 19:59:00,8.1,-1.5,30.18,West,279,5.0,13.0,64,0.00,,---,0.00,VWS V14.01,2013-01-22 00:59:00,
2013-01-21 20:00:00,7.4,-2.5,30.19,SW,215,4.0,14.0,63,0.00,,---,0.00,VWS V14.01,2013-01-22 01:00:00,
2013-01-21 20:04:00,8.1,-1.5,30.18,West,278,2.0,6.0,64,0.00,,---,0.00,VWS V14.01,2013-01-22 01:04:00,
2013-01-21 20:10:00,8.0,-1.6,30.18,WNW,294,3.0,8.0,64,0.00,,---,0.00,VWS V14.01,2013-01-22 01:10:00,
2013-01-21 20:15:00,7.9,-2.1,30.18,WSW,245,2.0,11.0,63,0.00,,---,0.00,VWS V14.01,2013-01-22 01:15:00,
2013-01-21 20:20:00,7.9,-2.1,30.19,SW,232,3.0,12.0,63,0.00,,---,0.00,VWS V14.01,2013-01-22 01:20:00,
2013-01-21 20:25:00,7.9,-2.1,30.19,West,277,4.0,12.0,63,0.00,,---,0.00,VWS V14.01,2013-01-22 01:25:00,
2013-01-21 20:30:00,7.8,-2.2,30.19,WSW,238,4.0,14.0,63,0.00,,---,0.00,VWS V14.01,2013-01-22 01:30:00,
2013-01-21 20:35:00,7.9,-2.4,30.19,West,271,1.0,14.0,62,0.00,,---,0.00,VWS V14.01,2013-01-22 01:35:00,
2013-01-21 20:40:00,7.8,-2.5,30.19,SSW,198,3.0,14.0,62,0.00,,---,0.00,VWS V14.01,2013-01-22 01:40:00,
2013-01-21 20:45:00,7.7,-2.6,30.19,WNW,302,2.0,14.0,62,0.00,,---,0.00,VWS V14.01,2013-01-22 01:45:00,
2013-01-21 20:50:00,7.6,-2.3,30.19,WNW,283,0.0,14.0,63,0.00,,---,0.00,VWS V14.01,2013-01-22 01:50:00,
2013-01-21 20:55:00,7.6,-2.3,30.19,SSE,157,0.0,14.0,63,0.00,,---,0.00,VWS V14.01,2013-01-22 01:55:00,
2013-01-21 21:00:00,7.5,-2.5,30.19,WNW,286,1.0,14.0,63,0.00,,---,0.00,VWS V14.01,2013-01-22 02:00:00,
2013-01-21 21:05:00,7.4,-2.5,30.19,WSW,242,4.0,9.0,63,0.00,,---,0.00,VWS V14.01,2013-01-22 02:05:00,
2013-01-21 21:10:00,7.4,-2.5,30.19,SSW,210,1.0,9.0,63,0.00,,---,0.00,VWS V14.01,2013-01-22 02:10:00,
2013-01-21 21:15:00,7.4,-2.5,30.20,WNW,300,4.0,12.0,63,0.00,,---,0.00,VWS V14.01,2013-01-22 02:15:00,
2013-01-21 21:20:00,7.4,-2.5,30.20,SSW,208,6.0,12.0,63,0.00,,---,0.00,VWS V14.01,2013-01-22 02:20:00,
2013-01-21 21:25:00,7.4,-2.9,30.20,WSW,245,3.0,12.0,62,0.00,,---,0.00,VWS V14.01,2013-01-22 02:25:00,
2013-01-21 21:30:00,7.4,-2.9,30.20,WSW,252,0.0,12.0,62,0.00,,---,0.00,VWS V14.01,2013-01-22 02:30:00,
2013-01-21 21:35:00,7.3,-2.6,30.20,SW,214,6.0,9.0,63,0.00,,---,0.00,VWS V14.01,2013-01-22 02:35:00,
2013-01-21 21:40:00,7.3,-2.6,30.20,WSW,243,0.0,11.0,63,0.00,,---,0.00,VWS V14.01,2013-01-22 02:40:00,
2013-01-21 21:45:00,7.3,-3.0,30.20,WSW,253,6.0,11.0,62,0.00,,---,0.00,VWS V14.01,2013-01-22 02:45:00,
2013-01-21 21:50:00,7.2,-3.1,30.20,WSW,253,5.0,11.0,62,0.00,,---,0.00,VWS V14.01,2013-01-22 02:50:00,
2013-01-21 21:55:00,7.3,-3.3,30.21,WSW,256,5.0,11.0,61,0.00,,---,0.00,VWS V14.01,2013-01-22 02:55:00,
2013-01-21 22:00:00,7.4,-3.2,30.21,SW,226,4.0,11.0,61,0.00,,---,0.00,VWS V14.01,2013-01-22 03:00:00,
2013-01-21 22:05:00,7.3,-3.3,30.21,WSW,255,2.0,9.0,61,0.00,,---,0.00,VWS V14.01,2013-01-22 03:05:00,
2013-01-21 22:10:00,7.3,-3.3,30.21,West,276,8.0,11.0,61,0.00,,---,0.00,VWS V14.01,2013-01-22 03:10:00,
2013-01-21 22:15:00,7.4,-3.6,30.21,SSW,212,6.0,12.0,60,0.00,,---,0.00,VWS V14.01,2013-01-22 03:15:00,
2013-01-21 22:20:00,7.4,-3.6,30.21,WNW,283,2.0,12.0,60,0.00,,---,0.00,VWS V14.01,2013-01-22 03:20:00,
2013-01-21 22:25:00,7.4,-3.2,30.21,WSW,244,3.0,12.0,61,0.00,,---,0.00,VWS V14.01,2013-01-22 03:25:00,
2013-01-21 22:30:00,7.4,-3.2,30.21,WSW,239,2.0,12.0,61,0.00,,---,0.00,VWS V14.01,2013-01-22 03:30:00,
2013-01-21 22:35:00,7.3,-3.3,30.21,West,271,1.0,13.0,61,0.00,,---,0.00,VWS V14.01,2013-01-22 03:35:00,
2013-01-21 22:40:00,7.3,-3.3,30.21,West,260,3.0,13.0,61,0.00,,---,0.00,VWS V14.01,2013-01-22 03:40:00,
2013-01-21 22:45:00,7.3,-3.0,30.21,WNW,296,2.0,13.0,62,0.00,,---,0.00,VWS V14.01,2013-01-22 03:45:00,
2013-01-21 22:50:00,7.3,-3.3,30.21,WNW,295,4.0,13.0,61,0.00,,---,0.00,VWS V14.01,2013-01-22 03:50:00,
2013-01-21 22:55:00,7.3,-3.0,30.21,SW,222,2.0,13.0,62,0.00,,---,0.00,VWS V14.01,2013-01-22 03:55:00,
2013-01-21 23:00:00,7.3,-3.0,30.22,WSW,245,5.0,13.0,62,0.00,,---,0.00,VWS V14.01,2013-01-22 04:00:00,
2013-01-21 23:05:00,7.3,-3.0,30.22,SW,226,3.0,15.0,62,0.00,,---,0.00,VWS V14.01,2013-01-22 04:05:00,
2013-01-21 23:10:00,7.2,-3.1,30.22,WNW,295,11.0,15.0,62,0.00,,---,0.00,VWS V14.01,2013-01-22 04:10:00,
2013-01-21 23:16:00,7.2,-3.1,30.22,West,270,1.0,15.0,62,0.00,,---,0.00,VWS V14.01,2013-01-22 04:16:00,
2013-01-21 23:21:00,7.1,-3.2,30.22,WSW,242,8.0,15.0,62,0.00,,---,0.00,VWS V14.01,2013-01-22 04:21:00,
2013-01-21 23:26:00,7.1,-3.2,30.22,WNW,288,5.0,15.0,62,0.00,,---,0.00,VWS V14.01,2013-01-22 04:26:00,
2013-01-21 23:30:00,6.3,-3.3,30.22,SSW,212,2.0,12.0,64,0.00,,---,0.00,VWS V14.01,2013-01-22 04:30:00,
2013-01-21 23:31:00,7.0,-3.3,30.22,WNW,290,9.0,15.0,62,0.00,,---,0.00,VWS V14.01,2013-01-22 04:31:00,
2013-01-21 23:36:00,7.0,-3.3,30.22,WSW,244,6.0,13.0,62,0.00,,---,0.00,VWS V14.01,2013-01-22 04:36:00,
2013-01-21 23:41:00,6.9,-3.3,30.22,WNW,295,8.0,16.0,62,0.00,,---,0.00,VWS V14.01,2013-01-22 04:41:00,
2013-01-21 23:46:00,6.8,-3.5,30.23,West,278,7.0,16.0,62,0.00,,---,0.00,VWS V14.01,2013-01-22 04:46:00,
2013-01-21 23:51:00,6.7,-3.2,30.23,SW,234,6.0,16.0,63,0.00,,---,0.00,VWS V14.01,2013-01-22 04:51:00,
2013-01-21 23:56:00,6.7,-3.5,30.23,SW,231,5.0,16.0,62,0.00,,---,0.00,VWS V14.01,2013-01-22 04:56:00,